Time;durP1;ratioP1;P1;durP2;ratioP2;P2;SDS_P1;SDS_P2;PMS_P1;PMS_P2;Temp;Humidity;BMP_temperature;BMP_pressure;BME280_temperature;BME280_humidity;BME280_pressure;Samples;Min_cycle;Max_cycle;Signal;HPM_P1;HPM_P2
2023/09/16 00:00:43;;;;;;;;;7.67;7.67;;;;;21.75;100.00;100877.59;5077686;27;49741;-74
2023/09/16 00:03:08;;;;;;;;;7.00;5.67;;;;;21.76;100.00;100865.03;5071923;28;69039;-72
2023/09/16 00:05:38;;;;;;;;;8.33;6.67;;;;;21.75;100.00;100866.84;5076274;27;63326;-73
2023/09/16 00:08:05;;;;;;;;;5.33;5.33;;;;;21.74;100.00;100867.78;5065429;27;45370;-74
2023/09/16 00:10:31;;;;;;;;;5.67;5.67;;;;;21.67;100.00;100872.47;5075423;28;45727;-75
2023/09/16 00:12:56;;;;;;;;;5.00;5.00;;;;;21.66;100.00;100876.09;5077251;27;45365;-73
2023/09/16 00:15:22;;;;;;;;;5.00;5.00;;;;;21.65;100.00;100868.97;5074533;27;45187;-73
2023/09/16 00:17:47;;;;;;;;;9.00;6.00;;;;;21.69;100.00;100869.75;5077779;28;45325;-73
2023/09/16 00:20:15;;;;;;;;;7.67;7.00;;;;;21.64;100.00;100867.22;5065507;28;65228;-73
2023/09/16 00:22:42;;;;;;;;;8.33;7.00;;;;;21.63;100.00;100869.97;5077924;27;45390;-73
2023/09/16 00:25:08;;;;;;;;;6.33;6.33;;;;;21.63;100.00;100861.91;5073315;27;45429;-73
2023/09/16 00:27:34;;;;;;;;;7.67;5.33;;;;;21.65;100.00;100868.09;5076172;27;45400;-72
2023/09/16 00:30:00;;;;;;;;;8.67;5.67;;;;;21.58;100.00;100862.06;5074354;28;45578;-74
2023/09/16 00:32:27;;;;;;;;;8.00;6.00;;;;;21.56;100.00;100863.03;5074561;27;68945;-73
2023/09/16 00:34:53;;;;;;;;;6.67;6.00;;;;;21.53;100.00;100866.72;5067637;28;45325;-74
2023/09/16 00:37:18;;;;;;;;;8.33;7.00;;;;;21.53;100.00;100857.78;5073453;28;45487;-73
2023/09/16 00:39:44;;;;;;;;;7.67;6.67;;;;;21.53;100.00;100864.03;5075876;27;68526;-73
2023/09/16 00:42:10;;;;;;;;;6.67;6.67;;;;;21.53;100.00;100866.72;5071162;27;45450;-73
2023/09/16 00:44:36;;;;;;;;;6.33;5.00;;;;;21.54;100.00;100864.91;5070552;28;45334;-73
2023/09/16 00:47:01;;;;;;;;;7.00;5.67;;;;;21.51;100.00;100857.81;5076686;27;47126;-73
2023/09/16 00:49:30;;;;;;;;;5.67;5.67;;;;;21.47;100.00;100853.50;5077563;27;49265;-75
2023/09/16 00:51:56;;;;;;;;;6.67;6.00;;;;;21.43;100.00;100847.31;5062458;28;45335;-74
2023/09/16 00:54:22;;;;;;;;;8.00;6.33;;;;;21.41;100.00;100850.97;5059154;28;45504;-74
2023/09/16 00:56:47;;;;;;;;;8.67;5.67;;;;;21.42;100.00;100848.25;5074125;28;45485;-72
2023/09/16 00:59:13;;;;;;;;;6.67;6.67;;;;;21.41;100.00;100841.13;5070244;28;71143;-73
2023/09/16 01:01:38;;;;;;;;;7.33;6.00;;;;;21.40;100.00;100847.41;5064317;28;45471;-73
2023/09/16 01:04:04;;;;;;;;;6.67;6.67;;;;;21.41;100.00;100842.91;5064896;28;53573;-73
2023/09/16 01:06:31;;;;;;;;;7.00;6.67;;;;;21.42;100.00;100840.19;5072170;28;45469;-73
2023/09/16 01:08:56;;;;;;;;;6.33;6.33;;;;;21.40;100.00;100841.16;5075757;27;47473;-73
2023/09/16 01:11:24;;;;;;;;;4.67;4.67;;;;;21.35;100.00;100840.44;5074317;27;45271;-74
2023/09/16 01:13:50;;;;;;;;;6.33;6.00;;;;;21.33;100.00;100840.50;5076311;27;45247;-73
2023/09/16 01:16:24;;;;;;;;;6.00;6.00;;;;;21.32;100.00;100841.44;5076299;28;45609;-73
2023/09/16 01:18:55;;;;;;;;;7.33;6.00;;;;;21.33;100.00;100840.50;5069331;27;45647;-73
2023/09/16 01:21:22;;;;;;;;;6.33;5.00;;;;;21.34;100.00;100850.31;5074093;28;45586;-74
2023/09/16 01:23:47;;;;;;;;;6.67;6.67;;;;;21.30;100.00;100840.59;5076327;27;45499;-73
2023/09/16 01:26:13;;;;;;;;;8.00;8.00;;;;;21.28;100.00;100847.81;5064105;28;45390;-74
2023/09/16 01:28:38;;;;;;;;;6.00;6.00;;;;;21.25;100.00;100837.16;5069611;28;46327;-74
2023/09/16 01:31:05;;;;;;;;;9.33;6.33;;;;;21.23;100.00;100839.00;5074047;28;65173;-73
2023/09/16 01:33:36;;;;;;;;;7.00;7.00;;;;;21.21;100.00;100842.69;5067739;28;45438;-74
2023/09/16 01:36:09;;;;;;;;;5.67;5.67;;;;;21.19;100.00;100840.91;5076659;28;45284;-73
2023/09/16 01:38:35;;;;;;;;;9.67;8.00;;;;;21.16;100.00;100830.28;5068141;28;46478;-72
2023/09/16 01:41:02;;;;;;;;;7.00;7.00;;;;;21.15;100.00;100835.72;5065394;28;70511;-73
2023/09/16 01:43:27;;;;;;;;;11.00;7.00;;;;;21.13;100.00;100843.81;5073238;28;46218;-73
2023/09/16 01:45:52;;;;;;;;;7.33;7.33;;;;;21.12;100.00;100850.09;5068748;27;64120;-73
2023/09/16 01:48:18;;;;;;;;;6.67;6.67;;;;;21.11;100.00;100842.09;5069740;27;73446;-73
2023/09/16 01:50:45;;;;;;;;;7.33;6.33;;;;;21.11;100.00;100842.09;5070173;28;45305;-73
2023/09/16 01:53:10;;;;;;;;;7.67;7.67;;;;;21.07;100.00;100833.25;5075295;27;45449;-73
2023/09/16 01:55:37;;;;;;;;;7.67;7.67;;;;;21.08;100.00;100843.06;5075047;27;45295;-73
2023/09/16 01:58:02;;;;;;;;;9.33;7.00;;;;;21.08;100.00;100839.50;5076157;27;46760;-73
2023/09/16 02:00:27;;;;;;;;;8.00;8.00;;;;;21.07;100.00;100835.94;5068382;27;45425;-73
2023/09/16 02:02:53;;;;;;;;;9.00;7.00;;;;;21.07;100.00;100832.38;5071541;28;57887;-74
2023/09/16 02:05:18;;;;;;;;;8.33;7.33;;;;;21.05;100.00;100828.88;5076756;27;45601;-73
2023/09/16 02:07:44;;;;;;;;;7.67;6.00;;;;;21.05;100.00;100823.53;5066502;27;45533;-73
2023/09/16 02:10:09;;;;;;;;;6.33;6.33;;;;;21.05;100.00;100819.03;5073180;28;67027;-73
2023/09/16 02:12:35;;;;;;;;;9.33;7.33;;;;;21.07;100.00;100819.84;5075833;27;45500;-74
2023/09/16 02:15:04;;;;;;;;;10.00;7.67;;;;;21.07;100.00;100814.47;5061695;28;45503;-73
2023/09/16 02:17:29;;;;;;;;;6.33;5.33;;;;;21.10;100.00;100805.44;5075260;27;46751;-73
2023/09/16 02:19:55;;;;;;;;;6.33;6.33;;;;;21.11;100.00;100813.44;5074111;27;61505;-72
2023/09/16 02:22:20;;;;;;;;;8.00;8.00;;;;;21.11;100.00;100816.13;5069361;27;45390;-73
2023/09/16 02:24:46;;;;;;;;;10.00;7.67;;;;;21.11;100.00;100813.44;5069608;27;56798;-72
2023/09/16 02:27:12;;;;;;;;;7.00;6.67;;;;;21.21;100.00;100805.09;5071441;28;46284;-73
2023/09/16 02:29:37;;;;;;;;;8.67;6.33;;;;;21.18;100.00;100812.31;5068435;28;45456;-73
2023/09/16 02:32:03;;;;;;;;;9.33;8.00;;;;;21.09;100.00;100814.41;5072395;27;45571;-73
2023/09/16 02:34:31;;;;;;;;;6.67;5.67;;;;;21.31;100.00;100810.16;5075472;27;45564;-73
2023/09/16 02:36:57;;;;;;;;;10.67;6.00;;;;;21.30;100.00;100808.34;5071935;28;45878;-73
2023/09/16 02:39:22;;;;;;;;;7.33;7.00;;;;;21.32;100.00;100795.78;5075068;28;45376;-74
2023/09/16 02:41:47;;;;;;;;;7.00;6.67;;;;;21.43;100.00;100787.34;5075262;27;63471;-74
2023/09/16 02:44:13;;;;;;;;;10.67;6.67;;;;;21.39;100.00;100786.56;5062293;27;45501;-73
2023/09/16 02:46:38;;;;;;;;;6.00;6.00;;;;;21.38;100.00;100783.94;5065086;27;71044;-73
2023/09/16 02:49:03;;;;;;;;;10.67;6.67;;;;;21.38;100.00;100784.81;5062711;28;67419;-73
2023/09/16 02:51:31;;;;;;;;;7.00;7.00;;;;;21.39;100.00;100791.94;5058621;28;45619;-73
2023/09/16 02:53:56;;;;;;;;;7.00;6.67;;;;;21.39;100.00;100793.75;5064017;27;45457;-72
2023/09/16 02:56:22;;;;;;;;;5.67;5.67;;;;;21.35;100.00;100798.34;5072488;28;45710;-73
2023/09/16 02:58:47;;;;;;;;;7.00;6.00;;;;;21.36;100.00;100788.47;5068359;27;69062;-74
2023/09/16 03:01:12;;;;;;;;;6.00;6.00;;;;;21.25;100.00;100804.03;5062848;28;59937;-75
2023/09/16 03:03:38;;;;;;;;;7.67;6.33;;;;;21.20;100.00;100804.22;5058999;27;45282;-73
2023/09/16 03:06:03;;;;;;;;;9.33;6.00;;;;;21.24;100.00;100805.84;5062533;28;46289;-73
2023/09/16 03:08:28;;;;;;;;;7.00;6.67;;;;;21.20;100.00;100798.84;5072417;27;45361;-74
2023/09/16 03:11:01;;;;;;;;;5.00;4.33;;;;;21.24;100.00;100794.22;5058457;28;60552;-73
2023/09/16 03:13:27;;;;;;;;;5.67;5.67;;;;;21.24;100.00;100786.19;5057185;28;45492;-73
2023/09/16 03:16:13;;;;;;;;;10.67;6.33;;;;;21.23;100.00;100792.47;5060479;27;45506;-73
2023/09/16 03:18:38;;;;;;;;;5.00;5.00;;;;;21.21;100.00;100792.53;5062150;28;45457;-73
2023/09/16 03:21:03;;;;;;;;;8.67;6.00;;;;;21.15;100.00;100793.63;5058866;28;45857;-73
2023/09/16 03:23:29;;;;;;;;;7.00;7.00;;;;;21.03;100.00;100798.50;5065363;27;45403;-73
2023/09/16 03:25:54;;;;;;;;;9.00;7.33;;;;;21.02;100.00;100802.13;5063773;28;69963;-73
2023/09/16 03:28:19;;;;;;;;;6.00;6.00;;;;;20.98;100.00;100793.28;5062708;28;72156;-74
2023/09/16 03:30:45;;;;;;;;;5.00;5.00;;;;;20.91;100.00;100794.41;5064768;28;45281;-73
2023/09/16 03:33:10;;;;;;;;;10.00;7.00;;;;;20.91;100.00;100795.28;5071684;27;45334;-73
2023/09/16 03:35:36;;;;;;;;;10.33;7.33;;;;;20.88;100.00;100784.69;5064289;28;57995;-73
2023/09/16 03:38:01;;;;;;;;;9.00;7.33;;;;;20.90;100.00;100787.31;5063358;28;45483;-73
2023/09/16 03:40:27;;;;;;;;;7.00;6.00;;;;;20.88;100.00;100782.00;5065373;28;45761;-73
2023/09/16 03:42:54;;;;;;;;;6.33;6.33;;;;;20.85;100.00;100779.41;5069610;27;45474;-72
2023/09/16 03:45:19;;;;;;;;;9.33;7.33;;;;;20.85;100.00;100779.41;5062797;27;45864;-73
2023/09/16 03:47:44;;;;;;;;;6.33;6.33;;;;;20.84;100.00;100768.72;5065578;28;64199;-73
2023/09/16 03:50:10;;;;;;;;;7.00;6.00;;;;;20.82;100.00;100768.75;5063648;28;65161;-72
2023/09/16 03:52:36;;;;;;;;;7.67;6.67;;;;;20.82;100.00;100771.44;5067570;28;45485;-73
2023/09/16 03:55:02;;;;;;;;;6.67;6.67;;;;;20.77;100.00;100770.69;5065508;28;45721;-73
2023/09/16 03:57:28;;;;;;;;;12.00;8.33;;;;;20.78;100.00;100775.16;5063179;28;45687;-73
2023/09/16 03:59:53;;;;;;;;;6.00;6.00;;;;;20.75;100.00;100777.94;5068500;28;45940;-73
2023/09/16 04:02:19;;;;;;;;;9.33;7.33;;;;;20.78;100.00;100787.72;5068202;28;45441;-73
2023/09/16 04:04:44;;;;;;;;;6.67;6.00;;;;;20.78;100.00;100782.34;5067585;27;58364;-73
2023/09/16 04:07:09;;;;;;;;;7.33;7.33;;;;;20.75;100.00;100767.19;5064787;28;65821;-72
2023/09/16 04:09:35;;;;;;;;;7.00;7.00;;;;;20.66;100.00;100764.81;5063278;27;63262;-72
2023/09/16 04:12:00;;;;;;;;;7.00;6.00;;;;;20.65;100.00;100771.97;5073096;28;61105;-72
2023/09/16 04:14:25;;;;;;;;;11.67;7.00;;;;;20.60;100.00;100768.56;5067553;27;69451;-73
2023/09/16 04:16:51;;;;;;;;;8.00;5.33;;;;;20.56;100.00;100769.59;5071839;28;45417;-73
2023/09/16 04:19:17;;;;;;;;;7.00;7.00;;;;;20.57;100.00;100766.00;5070037;28;49220;-73
2023/09/16 04:21:42;;;;;;;;;6.00;6.00;;;;;20.58;100.00;100753.44;5061738;27;45446;-73
2023/09/16 04:24:07;;;;;;;;;8.00;7.00;;;;;20.57;100.00;100751.69;5063267;28;46461;-73
2023/09/16 04:26:33;;;;;;;;;9.00;8.00;;;;;20.56;100.00;100755.28;5066388;28;45338;-74
2023/09/16 04:28:58;;;;;;;;;10.00;8.67;;;;;20.54;100.00;100760.69;5064437;28;58838;-73
2023/09/16 04:31:24;;;;;;;;;13.00;10.00;;;;;20.52;100.00;100754.53;5066599;28;45501;-73
2023/09/16 04:33:49;;;;;;;;;9.00;8.67;;;;;20.49;100.00;100751.91;5067901;28;45434;-73
2023/09/16 04:36:14;;;;;;;;;13.00;12.00;;;;;20.47;100.00;100761.84;5066522;27;60360;-73
2023/09/16 04:38:39;;;;;;;;;11.00;10.00;;;;;20.44;100.00;100766.38;5066808;28;64839;-73
2023/09/16 04:41:05;;;;;;;;;13.00;11.33;;;;;20.42;100.00;100764.63;5073462;27;59985;-74
2023/09/16 04:43:30;;;;;;;;;13.67;12.67;;;;;20.39;100.00;100758.47;5065721;27;46244;-73
2023/09/16 04:45:56;;;;;;;;;12.00;12.00;;;;;20.29;100.00;100749.81;5067516;27;67010;-73
2023/09/16 04:48:22;;;;;;;;;14.33;14.00;;;;;20.29;100.00;100755.16;5064324;27;45489;-73
2023/09/16 04:50:47;;;;;;;;;14.33;13.33;;;;;20.19;100.00;100760.84;5069918;28;45448;-73
2023/09/16 04:53:13;;;;;;;;;16.00;12.67;;;;;20.14;100.00;100755.66;5061001;27;46395;-72
2023/09/16 04:55:41;;;;;;;;;16.00;14.33;;;;;20.12;100.00;100754.81;5056996;28;45342;-73
2023/09/16 04:58:06;;;;;;;;;14.33;13.33;;;;;20.07;100.00;100759.44;5073912;28;45297;-73
2023/09/16 05:00:33;;;;;;;;;12.33;12.33;;;;;20.01;100.00;100764.97;5068012;27;45293;-72
2023/09/16 05:03:01;;;;;;;;;17.33;14.33;;;;;20.00;100.00;100772.13;5070467;27;47216;-73
2023/09/16 05:05:27;;;;;;;;;16.00;14.33;;;;;19.98;100.00;100765.06;5076860;28;45176;-73
2023/09/16 05:07:52;;;;;;;;;15.00;12.33;;;;;19.94;100.00;100771.44;5070408;28;52225;-74
2023/09/16 05:10:17;;;;;;;;;14.33;13.00;;;;;19.92;100.00;100773.25;5066144;27;62154;-73
2023/09/16 05:12:43;;;;;;;;;15.33;14.00;;;;;19.92;100.00;100778.63;5068067;27;46625;-73
2023/09/16 05:15:10;;;;;;;;;15.00;12.00;;;;;19.88;100.00;100778.72;5064887;27;67436;-72
2023/09/16 05:17:36;;;;;;;;;13.67;12.33;;;;;19.85;100.00;100778.81;5065707;28;45472;-73
2023/09/16 05:20:02;;;;;;;;;13.00;13.00;;;;;19.84;100.00;100776.16;5062520;28;45625;-74
2023/09/16 05:22:28;;;;;;;;;14.33;12.00;;;;;19.81;100.00;100782.47;5062554;28;46965;-74
2023/09/16 05:24:53;;;;;;;;;12.67;12.67;;;;;19.82;100.00;100792.31;5065063;28;61728;-73
2023/09/16 05:27:18;;;;;;;;;13.33;12.00;;;;;19.79;100.00;100789.69;5057770;27;62760;-73
2023/09/16 05:29:44;;;;;;;;;17.33;13.33;;;;;19.80;100.00;100795.94;5065620;28;58335;-73
2023/09/16 05:32:09;;;;;;;;;14.00;13.00;;;;;19.81;100.00;100793.19;5066739;27;45501;-72
2023/09/16 05:34:34;;;;;;;;;11.33;11.33;;;;;19.84;100.00;100790.44;5061388;28;65925;-73
2023/09/16 05:37:00;;;;;;;;;16.00;12.67;;;;;19.79;100.00;100800.41;5068208;27;45180;-73
2023/09/16 05:39:25;;;;;;;;;13.67;12.00;;;;;19.78;100.00;100801.34;5057213;28;59180;-73
2023/09/16 05:41:50;;;;;;;;;12.00;10.00;;;;;19.78;100.00;100790.63;5066156;28;67189;-73
2023/09/16 05:44:20;;;;;;;;;14.33;12.00;;;;;19.80;100.00;100798.59;5066095;27;66222;-73
2023/09/16 05:46:45;;;;;;;;;10.33;10.33;;;;;19.80;100.00;100807.53;5071065;28;45618;-72
2023/09/16 05:49:11;;;;;;;;;12.00;11.67;;;;;19.83;100.00;100806.56;5074043;27;45308;-73
2023/09/16 05:51:36;;;;;;;;;11.67;10.67;;;;;19.84;100.00;100808.31;5076321;27;46473;-73
2023/09/16 05:54:02;;;;;;;;;13.33;11.33;;;;;19.84;100.00;100803.84;5074769;27;45471;-73
2023/09/16 05:56:28;;;;;;;;;13.00;10.33;;;;;19.84;100.00;100811.88;5068220;28;45346;-73
2023/09/16 05:58:54;;;;;;;;;11.67;10.67;;;;;19.88;100.00;100810.00;5076213;27;45493;-73
2023/09/16 06:01:19;;;;;;;;;8.00;7.33;;;;;19.87;100.00;100809.13;5061887;28;45752;-73
2023/09/16 06:03:44;;;;;;;;;11.33;10.00;;;;;19.91;100.00;100819.75;5059028;28;45394;-73
2023/09/16 06:06:10;;;;;;;;;10.00;10.00;;;;;19.89;100.00;100814.44;5068433;28;45449;-72
2023/09/16 06:08:36;;;;;;;;;14.00;12.67;;;;;19.91;100.00;100804.53;5072744;28;45501;-73
2023/09/16 06:11:01;;;;;;;;;10.67;10.00;;;;;20.00;100.00;100823.06;5061794;27;68918;-73
2023/09/16 06:13:27;;;;;;;;;10.00;8.00;;;;;20.07;100.00;100815.72;5066346;28;45444;-73
2023/09/16 06:15:53;;;;;;;;;11.33;9.67;;;;;20.14;100.00;100822.69;5069364;27;64914;-73
2023/09/16 06:18:18;;;;;;;;;11.00;11.00;;;;;20.20;100.00;100822.50;5069421;28;45456;-73
2023/09/16 06:20:43;;;;;;;;;10.00;10.00;;;;;20.24;100.00;100825.94;5063036;27;69641;-73
2023/09/16 06:23:09;;;;;;;;;9.33;8.00;;;;;20.30;100.00;100829.34;5058771;28;45264;-74
2023/09/16 06:25:34;;;;;;;;;10.33;10.33;;;;;20.33;100.00;100831.94;5059782;28;45706;-73
2023/09/16 06:28:00;;;;;;;;;10.67;9.33;;;;;20.35;100.00;100823.88;5065143;28;46145;-74
2023/09/16 06:30:25;;;;;;;;;12.67;9.00;;;;;20.38;100.00;100835.34;5069227;27;45440;-72
2023/09/16 06:32:53;;;;;;;;;8.33;8.33;;;;;20.46;100.00;100828.91;5067241;27;68547;-74
2023/09/16 06:35:19;;;;;;;;;11.00;6.67;;;;;20.53;100.00;100831.38;5061648;27;45295;-72
2023/09/16 06:37:45;;;;;;;;;10.33;9.00;;;;;20.63;100.00;100832.00;5065175;28;45620;-73
2023/09/16 06:40:11;;;;;;;;;9.00;9.00;;;;;20.62;100.00;100843.66;5061970;27;64433;-74
2023/09/16 06:42:36;;;;;;;;;11.00;10.00;;;;;20.71;100.00;100832.63;5060138;28;45618;-73
2023/09/16 06:45:01;;;;;;;;;11.33;11.33;;;;;20.77;100.00;100836.91;5065244;28;63664;-72
2023/09/16 06:47:27;;;;;;;;;15.33;11.33;;;;;20.77;100.00;100840.47;5069814;27;45678;-73
2023/09/16 06:49:52;;;;;;;;;14.00;10.00;;;;;20.77;100.00;100844.97;5074051;27;55165;-73
2023/09/16 06:52:18;;;;;;;;;11.00;9.33;;;;;20.78;100.00;100844.94;5068272;28;45299;-73
2023/09/16 06:54:43;;;;;;;;;11.00;11.00;;;;;20.88;100.00;100841.03;5061788;28;45529;-74
2023/09/16 06:57:09;;;;;;;;;14.00;12.67;;;;;20.93;100.00;100836.41;5067123;28;45214;-73
2023/09/16 06:59:34;;;;;;;;;11.00;9.33;;;;;20.95;100.00;100827.44;5063185;27;69680;-74
2023/09/16 07:01:59;;;;;;;;;12.33;10.67;;;;;20.98;100.00;100836.22;5063037;28;68777;-73
2023/09/16 07:04:25;;;;;;;;;19.00;13.33;;;;;21.01;100.00;100829.91;5059673;27;45828;-75
2023/09/16 07:06:51;;;;;;;;;12.67;10.67;;;;;21.04;100.00;100837.84;5069857;28;45524;-73
2023/09/16 07:09:16;;;;;;;;;12.33;10.33;;;;;21.05;100.00;100819.03;5065042;27;72318;-75
2023/09/16 07:11:41;;;;;;;;;11.33;10.33;;;;;21.07;100.00;100827.91;5064279;27;66185;-73
2023/09/16 07:14:06;;;;;;;;;13.33;11.67;;;;;21.12;100.00;100827.75;5062808;27;61473;-72
2023/09/16 07:16:38;;;;;;;;;12.33;10.33;;;;;21.12;100.00;100825.94;5066959;28;62843;-73
2023/09/16 07:19:03;;;;;;;;;11.00;10.00;;;;;21.27;100.00;100829.94;5074005;27;46573;-73
2023/09/16 07:21:31;;;;;;;;;10.67;9.00;;;;;21.29;100.00;100814.63;5075053;28;45530;-73
2023/09/16 07:24:00;;;;;;;;;11.67;11.33;;;;;21.35;100.00;100824.31;5070994;28;45460;-73
2023/09/16 07:26:26;;;;;;;;;15.33;11.33;;;;;21.36;100.00;100826.06;5066482;27;45480;-72
2023/09/16 07:28:51;;;;;;;;;11.67;11.67;;;;;21.34;100.00;100818.06;5067050;28;46571;-72
2023/09/16 07:31:17;;;;;;;;;11.67;10.67;;;;;21.38;100.00;100819.75;5068607;27;66936;-72
2023/09/16 07:33:42;;;;;;;;;13.67;10.67;;;;;21.45;100.00;100812.34;5066924;28;62522;-71
2023/09/16 07:36:07;;;;;;;;;13.67;12.67;;;;;21.40;100.00;100823.25;5070805;28;59349;-74
2023/09/16 07:38:33;;;;;;;;;14.67;11.67;;;;;21.43;100.00;100824.97;5075360;27;70358;-73
2023/09/16 07:40:58;;;;;;;;;10.67;9.33;;;;;21.49;100.00;100837.31;5074554;28;68652;-76
2023/09/16 07:43:23;;;;;;;;;11.67;11.00;;;;;21.53;100.00;100834.47;5074135;27;56686;-74
2023/09/16 07:45:49;;;;;;;;;14.00;13.00;;;;;21.60;100.00;100837.81;5073588;27;59326;-73
2023/09/16 07:48:14;;;;;;;;;13.67;13.00;;;;;21.67;100.00;100837.53;5072351;27;46558;-73
2023/09/16 07:50:40;;;;;;;;;13.00;13.00;;;;;21.71;100.00;100832.94;5075057;27;45391;-74
2023/09/16 07:53:05;;;;;;;;;12.00;12.00;;;;;21.75;100.00;100841.78;5067414;28;60906;-73
2023/09/16 07:55:30;;;;;;;;;10.67;10.67;;;;;21.82;100.00;100837.94;5075472;27;45352;-74
2023/09/16 07:57:56;;;;;;;;;16.00;16.00;;;;;21.88;100.00;100835.91;5068247;27;46582;-73
2023/09/16 08:00:21;;;;;;;;;11.00;9.00;;;;;22.01;100.00;100836.34;5068036;28;67211;-73
2023/09/16 08:02:46;;;;;;;;;13.33;13.33;;;;;22.01;100.00;100843.56;5068033;27;65978;-74
2023/09/16 08:05:12;;;;;;;;;13.67;12.67;;;;;22.06;100.00;100842.44;5064710;28;62016;-73
2023/09/16 08:07:37;;;;;;;;;13.67;12.00;;;;;22.16;100.00;100843.91;5071293;27;64787;-73
2023/09/16 08:10:03;;;;;;;;;10.67;9.33;;;;;22.22;100.00;100838.28;5064610;27;45659;-73
2023/09/16 08:12:28;;;;;;;;;10.67;10.00;;;;;22.29;100.00;100843.44;5181053;22;46017;-74
2023/09/16 08:14:53;;;;;;;;;12.33;12.33;;;;;22.37;100.00;100835.94;5052195;28;54074;-74
2023/09/16 08:17:19;;;;;;;;;11.33;11.33;;;;;22.43;100.00;100835.75;5055303;28;46394;-74
2023/09/16 08:19:44;;;;;;;;;13.00;13.00;;;;;22.48;100.00;100833.75;5056016;28;45540;-75
2023/09/16 08:22:09;;;;;;;;;13.67;11.00;;;;;22.55;100.00;100839.78;5052243;28;65445;-75
2023/09/16 08:24:35;;;;;;;;;13.00;12.33;;;;;22.63;100.00;100843.03;5054957;28;57940;-74
2023/09/16 08:27:01;;;;;;;;;14.00;10.00;;;;;22.71;100.00;100849.00;5052846;28;73557;-74
2023/09/16 08:29:26;;;;;;;;;17.00;12.00;;;;;22.80;100.00;100848.66;5052309;28;45415;-73
2023/09/16 08:31:51;;;;;;;;;12.67;11.33;;;;;22.85;100.00;100838.56;5050905;28;45501;-74
2023/09/16 08:34:17;;;;;;;;;14.00;13.33;;;;;22.86;100.00;100836.75;5053635;28;60946;-74
2023/09/16 08:36:42;;;;;;;;;12.33;10.67;;;;;22.89;100.00;100826.75;5050425;28;69767;-73
2023/09/16 08:39:07;;;;;;;;;13.00;12.00;;;;;22.90;100.00;100828.50;5051196;28;66978;-75
2023/09/16 08:41:48;;;;;;;;;13.67;13.67;;;;;22.94;100.00;100832.84;5052323;28;45347;-74
2023/09/16 08:44:15;;;;;;;;;14.33;14.33;;;;;22.98;100.00;100826.41;5056822;28;45568;-74
2023/09/16 08:46:42;;;;;;;;;13.67;12.67;;;;;23.13;100.00;100830.28;5056593;28;46568;-74
2023/09/16 08:49:09;;;;;;;;;13.33;13.33;;;;;23.12;100.00;100825.84;5057361;28;45521;-74
2023/09/16 08:51:38;;;;;;;;;15.33;12.67;;;;;23.17;100.00;100829.22;5054804;28;55003;-74
2023/09/16 08:54:05;;;;;;;;;17.67;13.00;;;;;23.19;100.00;100827.34;5056678;28;45550;-74
2023/09/16 08:56:32;;;;;;;;;13.00;11.67;;;;;23.22;100.00;100826.31;5054477;28;71753;-73
2023/09/16 08:58:58;;;;;;;;;12.33;12.33;;;;;23.34;100.00;100827.66;5056769;28;58025;-74
2023/09/16 09:01:24;;;;;;;;;12.00;12.00;;;;;23.38;100.00;100822.03;5054810;28;45477;-74
2023/09/16 09:03:50;;;;;;;;;15.00;12.00;;;;;23.48;100.00;100826.09;5038500;28;45385;-73
2023/09/16 09:06:17;;;;;;;;;15.33;12.33;;;;;23.53;100.00;100826.78;5056124;28;70299;-73
2023/09/16 09:08:42;;;;;;;;;15.00;13.00;;;;;23.62;100.00;100814.75;5056186;28;45304;-74
2023/09/16 09:11:12;;;;;;;;;15.00;15.00;;;;;23.67;100.00;100814.56;5057162;28;45331;-74
2023/09/16 09:13:38;;;;;;;;;18.00;16.67;;;;;23.69;100.00;100818.94;5058021;28;45258;-75
2023/09/16 09:16:04;;;;;;;;;16.00;14.33;;;;;23.76;100.00;100817.75;5054717;28;45557;-74
2023/09/16 09:18:30;;;;;;;;;8.67;8.67;;;;;23.88;100.00;100815.44;5055560;28;58635;-73
2023/09/16 09:20:55;;;;;;;;;15.67;14.00;;;;;23.87;100.00;100819.97;5055719;28;61299;-74
2023/09/16 09:23:21;;;;;;;;;24.00;20.33;;;;;23.95;100.00;100806.13;5057070;28;45449;-73
2023/09/16 09:25:46;;;;;;;;;16.67;15.00;;;;;24.02;100.00;100813.00;5056528;28;46564;-73
2023/09/16 09:28:13;;;;;;;;;11.00;11.00;;;;;24.10;100.00;100821.63;5056299;28;45521;-73
2023/09/16 09:30:40;;;;;;;;;13.00;13.00;;;;;24.21;100.00;100816.63;5056719;28;45493;-74
2023/09/16 09:33:13;;;;;;;;;13.33;11.00;;;;;24.38;100.00;100823.09;5056666;28;45403;-73
2023/09/16 09:35:38;;;;;;;;;16.33;13.67;;;;;24.44;100.00;100820.97;5056340;28;46559;-74
2023/09/16 09:38:04;;;;;;;;;16.00;12.67;;;;;24.54;100.00;100816.03;5054995;28;55858;-73
2023/09/16 09:40:30;;;;;;;;;16.00;14.00;;;;;24.67;100.00;100816.34;5054536;28;64610;-75
2023/09/16 09:42:58;;;;;;;;;15.67;15.00;;;;;24.79;100.00;100815.75;5055451;28;63385;-74
2023/09/16 09:45:25;;;;;;;;;12.33;10.67;;;;;24.97;100.00;100805.84;5056200;28;45760;-75
2023/09/16 09:47:52;;;;;;;;;12.33;12.33;;;;;25.10;100.00;100798.94;5056259;28;45604;-73
2023/09/16 09:50:19;;;;;;;;;13.33;12.33;;;;;25.16;100.00;100804.03;5056787;28;45273;-74
2023/09/16 09:52:48;;;;;;;;;13.33;10.33;;;;;25.22;100.00;100798.31;5055818;28;45380;-73
2023/09/16 09:55:17;;;;;;;;;11.00;11.00;;;;;25.26;100.00;100786.41;5056322;28;47320;-73
2023/09/16 09:57:45;;;;;;;;;11.00;10.00;;;;;25.32;100.00;100788.78;5055879;28;45375;-73
2023/09/16 10:00:13;;;;;;;;;10.67;10.00;;;;;25.35;100.00;100793.16;5056639;28;45422;-74
2023/09/16 10:02:40;;;;;;;;;14.00;11.00;;;;;25.40;100.00;100795.63;5056419;28;45531;-73
2023/09/16 10:05:06;;;;;;;;;16.33;14.33;;;;;25.46;100.00;100790.81;5055738;28;46516;-74
2023/09/16 10:07:31;;;;;;;;;14.00;11.67;;;;;25.57;100.00;100791.13;5056488;28;45453;-74
2023/09/16 10:09:57;;;;;;;;;12.33;12.33;;;;;25.65;100.00;100785.28;5055866;28;45437;-74
2023/09/16 10:12:22;;;;;;;;;12.00;10.67;;;;;25.74;100.00;100787.56;5055944;28;45462;-73
2023/09/16 10:14:48;;;;;;;;;11.00;10.67;;;;;25.84;100.00;100785.25;5056872;28;46284;-74
2023/09/16 10:17:15;;;;;;;;;13.67;12.00;;;;;25.97;100.00;100780.03;5055684;28;45453;-74
2023/09/16 10:19:41;;;;;;;;;11.67;9.67;;;;;26.05;100.00;100784.09;5054952;28;45540;-75
2023/09/16 10:22:06;;;;;;;;;12.33;12.33;;;;;26.15;100.00;100781.72;5056042;28;45606;-74
2023/09/16 10:24:32;;;;;;;;;14.00;14.00;;;;;26.21;100.00;100783.25;5055412;28;69127;-75
2023/09/16 10:27:01;;;;;;;;;8.00;8.00;;;;;26.30;100.00;100782.72;5054974;28;62604;-74
2023/09/16 10:29:28;;;;;;;;;14.00;12.33;;;;;26.41;100.00;100774.00;5054316;28;45541;-73
2023/09/16 10:31:53;;;;;;;;;14.67;13.33;;;;;26.43;100.00;100767.59;5055041;28;64918;-75
2023/09/16 10:34:19;;;;;;;;;11.33;10.00;;;;;26.49;100.00;100772.66;5053456;28;68465;-75
2023/09/16 10:36:44;;;;;;;;;8.00;8.00;;;;;26.66;100.00;100768.13;5054991;28;66953;-74
2023/09/16 10:39:12;;;;;;;;;10.67;10.00;;;;;26.76;100.00;100780.19;5053504;28;63567;-74
2023/09/16 10:41:37;;;;;;;;;14.00;12.00;;;;;26.87;100.00;100783.16;5054538;28;45605;-74
2023/09/16 10:44:03;;;;;;;;;13.00;13.00;;;;;26.99;100.00;100784.28;5055858;28;47522;-74
2023/09/16 10:46:29;;;;;;;;;14.00;12.33;;;;;27.14;100.00;100784.28;5054010;28;45509;-75
2023/09/16 10:48:54;;;;;;;;;10.00;8.33;;;;;27.22;100.00;100783.84;5053008;28;45208;-75
2023/09/16 10:51:23;;;;;;;;;9.00;9.00;;;;;27.34;100.00;100776.81;5059016;28;45137;-75
2023/09/16 10:53:55;;;;;;;;;10.00;9.00;;;;;27.48;100.00;100776.84;5057726;28;46373;-74
2023/09/16 10:56:34;;;;;;;;;13.00;12.00;;;;;27.58;100.00;100774.47;5057927;28;45919;-75
2023/09/16 10:59:10;;;;;;;;;15.67;10.67;;;;;27.66;100.00;100761.31;5057656;28;45490;-75
2023/09/16 11:01:42;;;;;;;;;13.00;13.00;;;;;27.74;100.00;100755.44;5059256;28;45418;-75
2023/09/16 11:04:12;;;;;;;;;15.67;12.00;;;;;27.82;100.00;100773.00;5057428;28;45244;-76